createdAt,value
2022-07-25T00:00:09.608Z,3.42
2022-07-25T00:02:36.154Z,3.33
2022-07-25T00:05:02.772Z,3.78
2022-07-25T00:07:29.183Z,3.63
2022-07-25T00:09:55.537Z,3.53
2022-07-25T00:12:21.961Z,3.60
2022-07-25T00:14:48.701Z,3.92
2022-07-25T00:17:15.168Z,3.67
2022-07-25T00:19:41.527Z,3.88
2022-07-25T00:22:07.847Z,4.50
2022-07-25T00:24:34.212Z,3.78
2022-07-25T00:27:00.633Z,3.63
2022-07-25T00:29:26.972Z,4.00
2022-07-25T00:31:53.355Z,3.78
2022-07-25T00:34:19.680Z,4.03
2022-07-25T00:36:46.221Z,3.70
2022-07-25T00:39:12.591Z,3.22
2022-07-25T00:41:38.979Z,3.75
2022-07-25T00:44:05.771Z,3.70
2022-07-25T00:46:32.517Z,3.95
2022-07-25T00:48:59.014Z,3.65
2022-07-25T00:51:25.434Z,4.20
2022-07-25T00:53:51.786Z,3.28
2022-07-25T00:56:18.468Z,4.45
2022-07-25T00:58:45.556Z,3.60
2022-07-25T01:01:11.987Z,3.50
2022-07-25T01:03:38.373Z,3.83
2022-07-25T01:06:04.912Z,3.97
2022-07-25T01:08:32.180Z,4.28
2022-07-25T01:10:58.535Z,4.65
2022-07-25T01:13:26.091Z,5.18
2022-07-25T01:15:52.481Z,5.45
2022-07-25T01:18:18.908Z,4.60
2022-07-25T01:20:45.426Z,3.78
2022-07-25T01:23:11.762Z,4.10
2022-07-25T01:25:38.167Z,3.38
2022-07-25T01:28:04.636Z,3.85
2022-07-25T01:30:30.970Z,4.03
2022-07-25T01:32:57.305Z,2.90
2022-07-25T01:35:23.647Z,4.45
2022-07-25T01:37:49.996Z,3.78
2022-07-25T01:40:16.456Z,4.80
2022-07-25T01:42:43.375Z,4.28
2022-07-25T01:45:10.386Z,3.30
2022-07-25T01:47:36.798Z,3.63
2022-07-25T01:50:04.027Z,3.88
2022-07-25T01:52:30.412Z,3.47
2022-07-25T01:54:56.832Z,4.95
2022-07-25T01:57:26.586Z,4.55
2022-07-25T01:59:57.901Z,4.07
2022-07-25T02:02:24.309Z,3.15
2022-07-25T02:04:50.752Z,3.28
2022-07-25T02:07:17.134Z,4.50
2022-07-25T02:09:43.529Z,4.72
2022-07-25T02:12:09.916Z,4.43
2022-07-25T02:14:36.254Z,4.70
2022-07-25T02:17:02.702Z,4.70
2022-07-25T02:19:29.106Z,5.85
2022-07-25T02:21:55.461Z,6.63
2022-07-25T02:24:21.799Z,5.05
2022-07-25T02:26:48.128Z,5.22
2022-07-25T02:29:14.579Z,6.25
2022-07-25T02:31:40.908Z,6.22
2022-07-25T02:34:07.679Z,5.72
2022-07-25T02:36:34.358Z,4.95
2022-07-25T02:39:00.726Z,5.35
2022-07-25T02:41:27.069Z,4.90
2022-07-25T02:43:53.421Z,5.22
2022-07-25T02:46:19.839Z,4.15
2022-07-25T02:48:46.341Z,4.13
2022-07-25T02:51:13.027Z,4.28
2022-07-25T02:53:56.704Z,4.35
2022-07-25T02:56:23.883Z,4.35
2022-07-25T02:58:50.281Z,3.20
2022-07-25T03:01:16.695Z,3.25
2022-07-25T03:03:43.118Z,2.53
2022-07-25T03:06:09.462Z,2.92
2022-07-25T03:08:35.925Z,2.33
2022-07-25T03:11:02.264Z,3.40
2022-07-25T03:13:28.689Z,3.03
2022-07-25T03:15:55.624Z,3.40
2022-07-25T03:18:21.975Z,2.63
2022-07-25T03:20:48.372Z,2.60
2022-07-25T03:23:14.704Z,2.70
2022-07-25T03:25:41.040Z,3.08
2022-07-25T03:28:07.400Z,2.90
2022-07-25T03:30:33.824Z,2.85
2022-07-25T03:33:00.170Z,2.53
2022-07-25T03:35:26.502Z,1.70
2022-07-25T03:37:53.343Z,2.53
2022-07-25T03:40:19.833Z,2.42
2022-07-25T03:42:46.244Z,2.65
2022-07-25T03:45:12.610Z,2.60
2022-07-25T03:47:38.936Z,2.53
2022-07-25T03:50:05.519Z,2.05
2022-07-25T03:52:31.882Z,2.35
2022-07-25T03:54:58.226Z,2.50
2022-07-25T03:57:24.569Z,2.35
2022-07-25T03:59:50.937Z,2.00
2022-07-25T04:02:17.351Z,2.45
2022-07-25T04:04:43.793Z,2.50
2022-07-25T04:07:10.141Z,2.20
2022-07-25T04:09:37.083Z,2.08
2022-07-25T04:12:03.542Z,2.30
2022-07-25T04:14:29.915Z,2.60
2022-07-25T04:16:56.293Z,1.98
2022-07-25T04:19:22.695Z,2.40
2022-07-25T04:21:51.715Z,1.90
2022-07-25T04:24:18.036Z,2.03
2022-07-25T04:26:44.342Z,1.98
2022-07-25T04:29:10.723Z,2.08
2022-07-25T04:31:37.155Z,1.60
2022-07-25T04:34:03.750Z,1.58
2022-07-25T04:36:30.269Z,2.05
2022-07-25T04:38:56.637Z,2.03
2022-07-25T04:41:23.003Z,1.63
2022-07-25T04:43:49.340Z,1.75
2022-07-25T04:46:19.579Z,1.92
2022-07-25T04:48:46.367Z,2.00
2022-07-25T04:51:13.464Z,1.90
2022-07-25T04:53:39.851Z,2.67
2022-07-25T04:56:06.391Z,1.27
2022-07-25T04:58:33.132Z,1.40
2022-07-25T05:00:59.581Z,1.35
2022-07-25T05:03:26.018Z,1.38
2022-07-25T05:05:52.380Z,1.17
2022-07-25T05:08:18.716Z,1.15
2022-07-25T05:10:45.032Z,1.30
2022-07-25T05:13:11.359Z,1.40
2022-07-25T05:15:39.542Z,1.10
2022-07-25T05:18:05.942Z,1.40
2022-07-25T05:20:32.264Z,1.20
2022-07-25T05:22:58.736Z,1.25
2022-07-25T05:25:25.470Z,1.05
2022-07-25T05:27:54.589Z,0.90
2022-07-25T05:30:21.203Z,1.00
2022-07-25T05:32:47.534Z,0.75
2022-07-25T05:35:15.575Z,0.90
2022-07-25T05:37:42.227Z,0.80
2022-07-25T05:40:08.733Z,0.88
2022-07-25T05:42:35.231Z,1.17
2022-07-25T05:45:01.733Z,0.88
2022-07-25T05:47:28.160Z,1.17
2022-07-25T05:49:54.650Z,1.08
2022-07-25T05:52:20.963Z,0.90
2022-07-25T05:54:47.276Z,1.60
2022-07-25T05:57:13.644Z,1.30
2022-07-25T05:59:40.037Z,1.10
2022-07-25T06:02:06.452Z,0.93
2022-07-25T06:04:33.344Z,1.00
2022-07-25T06:06:59.649Z,0.93
2022-07-25T06:09:26.053Z,0.95
2022-07-25T06:12:00.423Z,0.93
2022-07-25T06:14:28.769Z,1.08
2022-07-25T06:16:55.260Z,0.77
2022-07-25T06:19:21.609Z,1.17
2022-07-25T06:21:48.056Z,1.02
2022-07-25T06:24:14.428Z,1.10
2022-07-25T06:26:40.807Z,1.23
2022-07-25T06:29:07.141Z,0.82
2022-07-25T06:31:33.623Z,1.23
2022-07-25T06:33:59.973Z,0.70
2022-07-25T06:36:32.386Z,1.08
2022-07-25T06:38:59.380Z,0.93
2022-07-25T06:41:25.740Z,0.90
2022-07-25T06:43:52.127Z,0.90
2022-07-25T06:46:18.536Z,0.93
2022-07-25T06:48:44.987Z,0.95
2022-07-25T06:51:11.442Z,0.90
2022-07-25T06:53:38.037Z,0.95
2022-07-25T06:56:04.520Z,0.80
2022-07-25T06:58:30.978Z,0.70
2022-07-25T07:00:57.596Z,1.00
2022-07-25T07:03:24.063Z,0.95
2022-07-25T07:05:50.519Z,1.15
2022-07-25T07:08:19.574Z,1.00
2022-07-25T07:10:45.965Z,1.10
2022-07-25T07:13:15.195Z,0.68
2022-07-25T07:15:50.048Z,0.80
2022-07-25T07:18:17.527Z,1.10
2022-07-25T07:20:44.302Z,1.13
2022-07-25T07:23:10.761Z,1.05
2022-07-25T07:25:37.193Z,1.25
2022-07-25T07:28:04.052Z,1.15
2022-07-25T07:30:58.736Z,1.30
2022-07-25T07:33:17.122Z,1.83
2022-07-25T07:35:44.051Z,1.00
2022-07-25T07:38:10.363Z,1.20
2022-07-25T07:40:36.767Z,1.05
2022-07-25T07:43:03.982Z,1.40
2022-07-25T07:45:30.411Z,0.77
2022-07-25T07:47:56.888Z,0.95
2022-07-25T07:50:24.333Z,1.23
2022-07-25T07:52:51.729Z,0.82
2022-07-25T07:55:36.552Z,0.95
2022-07-25T07:58:02.989Z,1.05
2022-07-25T08:00:31.047Z,0.90
2022-07-25T08:02:58.265Z,1.10
2022-07-25T08:05:31.934Z,1.08
2022-07-25T08:07:58.796Z,0.80
2022-07-25T08:10:28.571Z,1.48
2022-07-25T08:12:54.955Z,0.88
2022-07-25T08:15:21.701Z,1.08
2022-07-25T08:17:50.077Z,1.00
2022-07-25T08:20:36.945Z,1.02
2022-07-25T08:23:03.985Z,1.02
2022-07-25T08:25:31.138Z,0.88
2022-07-25T08:27:57.543Z,0.90
2022-07-25T08:30:24.004Z,0.70
2022-07-25T08:32:54.348Z,1.00
2022-07-25T08:35:21.193Z,1.38
2022-07-25T08:37:48.094Z,1.85
2022-07-25T08:40:15.764Z,1.10
2022-07-25T08:42:42.309Z,1.35
2022-07-25T08:45:09.936Z,1.00
2022-07-25T08:47:37.098Z,1.25
2022-07-25T08:50:05.204Z,1.63
2022-07-25T08:52:35.136Z,1.20
2022-07-25T08:55:05.017Z,1.35
2022-07-25T08:57:31.427Z,1.52
2022-07-25T08:59:58.942Z,1.33
2022-07-25T09:02:29.174Z,1.40
2022-07-25T09:04:56.933Z,1.00
2022-07-25T09:07:30.527Z,1.17
2022-07-25T09:09:56.889Z,1.30
2022-07-25T09:12:27.368Z,1.50
2022-07-25T09:14:54.215Z,1.85
2022-07-25T09:17:21.969Z,1.60
2022-07-25T09:19:54.224Z,1.40
2022-07-25T09:22:20.601Z,1.10
2022-07-25T09:24:47.324Z,1.48
2022-07-25T09:27:14.954Z,1.73
2022-07-25T09:29:42.635Z,1.63
2022-07-25T09:32:19.948Z,1.60
2022-07-25T09:34:47.607Z,1.40
2022-07-25T09:37:15.489Z,1.40
2022-07-25T09:39:46.312Z,2.10
2022-07-25T09:42:15.917Z,1.30
2022-07-25T09:44:42.422Z,1.95
2022-07-25T09:47:12.223Z,1.67
2022-07-25T09:49:40.330Z,1.73
2022-07-25T09:52:07.017Z,1.70
2022-07-25T09:54:33.373Z,1.38
2022-07-25T09:56:59.695Z,1.75
2022-07-25T09:59:26.123Z,2.20
2022-07-25T10:01:56.700Z,1.73
2022-07-25T10:04:30.827Z,1.42
2022-07-25T10:07:07.586Z,1.25
2022-07-25T10:09:33.941Z,1.70
2022-07-25T10:12:07.274Z,1.85
2022-07-25T10:14:34.293Z,1.80
2022-07-25T10:17:01.818Z,1.58
2022-07-25T10:19:49.911Z,1.38
2022-07-25T10:22:29.397Z,1.85
2022-07-25T10:25:13.326Z,1.90
2022-07-25T10:27:50.537Z,2.33
2022-07-25T10:30:23.937Z,1.92
2022-07-25T10:32:51.528Z,1.73
2022-07-25T10:35:17.932Z,2.05
2022-07-25T10:37:48.996Z,1.70
2022-07-25T10:40:25.219Z,1.65
2022-07-25T10:42:56.068Z,1.67
2022-07-25T10:45:25.913Z,2.28
2022-07-25T10:47:55.838Z,1.63
2022-07-25T10:50:40.271Z,1.50
2022-07-25T10:53:09.891Z,1.95
2022-07-25T10:55:36.936Z,1.77
2022-07-25T10:58:21.583Z,1.80
2022-07-25T11:00:48.073Z,2.53
2022-07-25T11:03:18.072Z,2.13
2022-07-25T11:05:47.987Z,2.15
2022-07-25T11:08:22.843Z,2.38
2022-07-25T11:10:53.327Z,1.90
2022-07-25T11:13:19.859Z,2.30
2022-07-25T11:15:46.677Z,2.33
2022-07-25T11:18:13.086Z,2.35
2022-07-25T11:20:39.538Z,2.30
2022-07-25T11:23:06.698Z,1.73
2022-07-25T11:25:33.036Z,2.38
2022-07-25T11:28:00.807Z,1.65
2022-07-25T11:30:29.090Z,1.80
2022-07-25T11:32:57.184Z,1.40
2022-07-25T11:35:31.470Z,1.60
2022-07-25T11:37:58.805Z,1.48
2022-07-25T11:40:25.868Z,1.23
2022-07-25T11:42:53.487Z,1.17
2022-07-25T11:45:22.831Z,1.60
2022-07-25T11:47:50.457Z,2.00
2022-07-25T11:50:17.289Z,1.48
2022-07-25T11:52:43.781Z,1.65
2022-07-25T11:55:11.523Z,1.90
2022-07-25T11:57:42.026Z,2.10
2022-07-25T12:00:10.050Z,1.98
2022-07-25T12:02:39.531Z,2.00
2022-07-25T12:05:09.701Z,1.80
2022-07-25T12:07:36.136Z,1.60
2022-07-25T12:10:02.515Z,1.63
2022-07-25T12:12:28.897Z,1.52
2022-07-25T12:14:55.236Z,1.33
2022-07-25T12:17:21.622Z,1.05
2022-07-25T12:19:48.036Z,2.10
2022-07-25T12:22:14.438Z,1.27
2022-07-25T12:24:40.788Z,1.20
2022-07-25T12:27:07.203Z,1.65
2022-07-25T12:29:33.569Z,2.55
2022-07-25T12:31:59.942Z,2.17
2022-07-25T12:34:26.327Z,1.25
2022-07-25T12:36:53.027Z,1.55
2022-07-25T12:39:19.376Z,1.55
2022-07-25T12:41:45.716Z,1.83
2022-07-25T12:44:12.252Z,1.33
2022-07-25T12:46:45.844Z,1.48
2022-07-25T12:49:15.491Z,1.70
2022-07-25T12:51:41.980Z,1.88
2022-07-25T12:54:08.666Z,1.48
2022-07-25T12:56:35.420Z,1.33
2022-07-25T12:59:02.087Z,1.38
2022-07-25T13:01:28.544Z,1.30
2022-07-25T13:03:55.165Z,1.70
2022-07-25T13:06:21.588Z,2.00
2022-07-25T13:08:47.964Z,1.48
2022-07-25T13:11:14.396Z,1.42
2022-07-25T13:13:40.780Z,1.60
2022-07-25T13:16:07.315Z,1.65
2022-07-25T13:18:33.931Z,1.60
2022-07-25T13:21:03.387Z,1.45
2022-07-25T13:23:29.818Z,1.35
2022-07-25T13:25:56.157Z,1.50
2022-07-25T13:28:22.556Z,0.98
2022-07-25T13:30:48.913Z,1.58
2022-07-25T13:33:15.640Z,1.50
2022-07-25T13:35:42.016Z,1.88
2022-07-25T13:38:11.483Z,1.75
2022-07-25T13:40:41.848Z,1.40
2022-07-25T13:43:09.093Z,1.90
2022-07-25T13:45:35.607Z,1.25
2022-07-25T13:48:27.863Z,1.50
2022-07-25T13:50:48.838Z,1.23
2022-07-25T13:53:15.477Z,1.15
2022-07-25T13:55:41.863Z,1.42
2022-07-25T13:58:08.828Z,1.15
2022-07-25T14:00:35.186Z,1.30
2022-07-25T14:03:01.563Z,0.93
2022-07-25T14:05:28.042Z,1.20
2022-07-25T14:07:54.392Z,1.60
2022-07-25T14:10:20.721Z,0.80
2022-07-25T14:12:47.105Z,0.85
2022-07-25T14:15:13.443Z,1.08
2022-07-25T14:17:39.918Z,1.20
2022-07-25T14:20:06.777Z,1.10
2022-07-25T14:22:33.409Z,1.20
2022-07-25T14:24:59.796Z,0.93
2022-07-25T14:27:26.172Z,1.27
2022-07-25T14:29:53.835Z,1.17
2022-07-25T14:32:20.367Z,1.73
2022-07-25T14:34:46.699Z,1.33
2022-07-25T14:37:13.131Z,1.45
2022-07-25T14:39:39.821Z,0.90
2022-07-25T14:42:06.220Z,1.40
2022-07-25T14:44:32.673Z,1.20
2022-07-25T14:47:00.020Z,1.10
2022-07-25T14:49:28.948Z,1.45
2022-07-25T14:51:55.392Z,1.15
2022-07-25T14:54:21.726Z,1.20
2022-07-25T14:56:48.199Z,1.17
2022-07-25T14:59:14.784Z,1.88
2022-07-25T15:01:41.248Z,1.67
2022-07-25T15:04:08.046Z,1.38
2022-07-25T15:06:34.578Z,1.20
2022-07-25T15:09:01.033Z,1.80
2022-07-25T15:11:27.376Z,1.48
2022-07-25T15:13:53.717Z,1.65
2022-07-25T15:16:20.201Z,1.77
2022-07-25T15:19:13.484Z,1.42
2022-07-25T15:21:33.259Z,1.98
2022-07-25T15:23:59.995Z,1.45
2022-07-25T15:26:26.392Z,2.55
2022-07-25T15:28:52.833Z,2.05
2022-07-25T15:31:21.884Z,1.85
2022-07-25T15:33:48.268Z,1.10
2022-07-25T15:36:14.678Z,1.80
2022-07-25T15:38:41.129Z,1.55
2022-07-25T15:41:10.425Z,1.38
2022-07-25T15:43:37.121Z,1.58
2022-07-25T15:46:03.529Z,1.77
2022-07-25T15:48:29.993Z,1.58
2022-07-25T15:50:58.769Z,2.38
2022-07-25T15:53:25.245Z,2.58
2022-07-25T15:55:52.000Z,1.95
2022-07-25T15:58:18.367Z,1.58
2022-07-25T16:00:44.853Z,2.20
2022-07-25T16:03:11.479Z,2.20
2022-07-25T16:05:38.541Z,1.60
2022-07-25T16:08:05.278Z,2.00
2022-07-25T16:10:32.178Z,1.58
2022-07-25T16:12:58.759Z,1.60
2022-07-25T16:15:25.417Z,1.92
2022-07-25T16:17:53.588Z,2.83
2022-07-25T16:20:20.147Z,1.95
2022-07-25T16:22:47.186Z,2.17
2022-07-25T16:25:13.536Z,2.45
2022-07-25T16:27:39.945Z,2.00
2022-07-25T16:30:06.781Z,1.67
2022-07-25T16:32:33.176Z,1.70
2022-07-25T16:34:59.486Z,1.52
2022-07-25T16:37:25.826Z,1.58
2022-07-25T16:39:52.152Z,2.30
2022-07-25T16:42:18.458Z,2.42
2022-07-25T16:44:44.987Z,2.13
2022-07-25T16:47:11.694Z,1.73
2022-07-25T16:49:38.074Z,1.42
2022-07-25T16:52:04.475Z,1.13
2022-07-25T16:54:30.825Z,1.48
2022-07-25T16:56:59.627Z,1.98
2022-07-25T16:59:26.338Z,1.60
2022-07-25T17:01:52.880Z,1.30
2022-07-25T17:04:19.281Z,1.80
2022-07-25T17:06:45.708Z,1.60
2022-07-25T17:09:12.525Z,1.88
2022-07-25T17:11:38.856Z,1.40
2022-07-25T17:14:05.203Z,1.55
2022-07-25T17:16:32.242Z,1.20
2022-07-25T17:18:58.736Z,1.42
2022-07-25T17:21:25.137Z,1.50
2022-07-25T17:23:53.189Z,1.70
2022-07-25T17:26:19.958Z,2.08
2022-07-25T17:28:46.497Z,1.90
2022-07-25T17:31:13.141Z,1.58
2022-07-25T17:33:39.596Z,1.95
2022-07-25T17:36:06.304Z,1.45
2022-07-25T17:38:34.983Z,1.27
2022-07-25T17:41:01.938Z,2.25
2022-07-25T17:43:28.960Z,1.40
2022-07-25T17:45:55.614Z,1.63
2022-07-25T17:48:22.021Z,1.60
2022-07-25T17:50:48.405Z,1.30
2022-07-25T17:53:16.735Z,1.60
2022-07-25T17:55:43.868Z,1.40
2022-07-25T17:58:11.492Z,1.42
2022-07-25T18:00:37.852Z,1.63
2022-07-25T18:03:04.888Z,1.60
2022-07-25T18:05:31.436Z,2.00
2022-07-25T18:07:58.013Z,1.42
2022-07-25T18:10:24.365Z,1.40
2022-07-25T18:12:50.764Z,1.08
2022-07-25T18:15:17.162Z,2.05
2022-07-25T18:17:47.361Z,1.30
2022-07-25T18:20:14.960Z,1.33
2022-07-25T18:22:41.494Z,1.38
2022-07-25T18:25:09.450Z,1.60
2022-07-25T18:27:35.968Z,1.20
2022-07-25T18:30:05.850Z,1.38
2022-07-25T18:32:32.289Z,1.75
2022-07-25T18:34:58.639Z,1.65
2022-07-25T18:37:25.631Z,1.73
2022-07-25T18:39:52.072Z,1.52
2022-07-25T18:42:18.409Z,1.45
2022-07-25T18:44:44.757Z,1.40
2022-07-25T18:47:11.088Z,2.22
2022-07-25T18:49:37.492Z,2.10
2022-07-25T18:52:04.130Z,1.83
2022-07-25T18:54:30.603Z,1.77
2022-07-25T18:56:56.948Z,1.83
2022-07-25T18:59:25.314Z,1.50
2022-07-25T19:01:52.009Z,2.40
2022-07-25T19:04:18.717Z,1.73
2022-07-25T19:06:45.102Z,1.77
2022-07-25T19:09:11.502Z,1.88
2022-07-25T19:11:42.195Z,1.65
2022-07-25T19:14:09.205Z,2.40
2022-07-25T19:16:35.972Z,1.83
2022-07-25T19:19:02.372Z,2.10
2022-07-25T19:21:28.848Z,1.80
2022-07-25T19:23:55.269Z,3.30
2022-07-25T19:26:22.350Z,1.92
2022-07-25T19:28:49.138Z,2.40
2022-07-25T19:31:15.819Z,1.90
2022-07-25T19:33:42.333Z,2.47
2022-07-25T19:36:08.900Z,1.88
2022-07-25T19:38:35.593Z,2.40
2022-07-25T19:41:02.262Z,1.80
2022-07-25T19:43:28.626Z,2.33
2022-07-25T19:45:55.074Z,2.35
2022-07-25T19:48:24.516Z,2.88
2022-07-25T19:50:51.569Z,2.60
2022-07-25T19:53:17.926Z,2.22
2022-07-25T19:55:44.338Z,2.45
2022-07-25T19:58:10.762Z,1.90
2022-07-25T20:00:37.728Z,2.22
2022-07-25T20:03:04.538Z,2.38
2022-07-25T20:05:32.111Z,1.40
2022-07-25T20:07:58.455Z,1.98
2022-07-25T20:10:24.785Z,1.88
2022-07-25T20:12:51.568Z,1.63
2022-07-25T20:15:18.091Z,2.13
2022-07-25T20:17:44.560Z,1.77
2022-07-25T20:20:11.118Z,1.20
2022-07-25T20:22:37.747Z,2.05
2022-07-25T20:25:08.336Z,1.73
2022-07-25T20:27:34.829Z,1.60
2022-07-25T20:30:03.455Z,2.05
2022-07-25T20:32:30.506Z,1.77
2022-07-25T20:34:57.128Z,2.13
2022-07-25T20:37:23.504Z,1.80
2022-07-25T20:39:51.952Z,1.73
2022-07-25T20:42:18.389Z,1.58
2022-07-25T20:44:45.953Z,2.30
2022-07-25T20:47:16.048Z,1.88
2022-07-25T20:49:42.401Z,2.03
2022-07-25T20:52:09.018Z,1.67
2022-07-25T20:54:36.499Z,2.03
2022-07-25T20:57:03.471Z,1.67
2022-07-25T20:59:29.846Z,1.80
2022-07-25T21:01:56.920Z,2.38
2022-07-25T21:04:23.288Z,1.70
2022-07-25T21:06:49.639Z,1.65
2022-07-25T21:09:16.228Z,2.22
2022-07-25T21:11:42.650Z,2.75
2022-07-25T21:14:09.506Z,2.63
2022-07-25T21:16:36.190Z,2.38
2022-07-25T21:19:03.803Z,1.58
2022-07-25T21:21:33.281Z,2.33
2022-07-25T21:23:59.817Z,2.25
2022-07-25T21:26:26.159Z,1.67
2022-07-25T21:28:52.558Z,2.35
2022-07-25T21:31:19.227Z,2.35
2022-07-25T21:33:45.704Z,1.90
2022-07-25T21:36:12.079Z,2.20
2022-07-25T21:38:38.497Z,2.83
2022-07-25T21:41:05.327Z,1.92
2022-07-25T21:43:31.758Z,2.13
2022-07-25T21:45:58.289Z,1.90
2022-07-25T21:48:43.659Z,2.40
2022-07-25T21:51:10.433Z,2.40
2022-07-25T21:53:45.723Z,2.40
2022-07-25T21:56:12.084Z,2.00
2022-07-25T21:58:38.588Z,2.08
2022-07-25T22:01:04.973Z,2.45
2022-07-25T22:03:31.354Z,2.45
2022-07-25T22:05:57.694Z,1.90
2022-07-25T22:08:24.016Z,1.13
2022-07-25T22:10:50.591Z,2.08
2022-07-25T22:13:17.168Z,2.83
2022-07-25T22:15:44.375Z,2.25
2022-07-25T22:18:10.750Z,1.92
2022-07-25T22:20:37.144Z,1.95
2022-07-25T22:23:04.704Z,2.60
2022-07-25T22:25:31.097Z,1.58
2022-07-25T22:27:57.439Z,2.15
2022-07-25T22:30:23.788Z,1.92
2022-07-25T22:32:50.512Z,2.42
2022-07-25T22:35:17.025Z,1.92
2022-07-25T22:37:43.941Z,2.30
2022-07-25T22:40:10.636Z,1.40
2022-07-25T22:42:37.013Z,1.92
2022-07-25T22:45:03.884Z,1.83
2022-07-25T22:47:30.203Z,1.60
2022-07-25T22:49:56.528Z,2.75
2022-07-25T22:52:22.856Z,1.40
2022-07-25T22:54:49.160Z,1.50
2022-07-25T22:57:15.490Z,1.80
2022-07-25T22:59:41.883Z,2.05
2022-07-25T23:02:08.248Z,2.30
2022-07-25T23:04:34.622Z,1.27
2022-07-25T23:07:01.024Z,1.88
2022-07-25T23:09:33.766Z,1.60
2022-07-25T23:14:29.200Z,2.30
2022-07-25T23:17:14.098Z,1.75
2022-07-25T23:19:40.456Z,1.83
2022-07-25T23:22:06.802Z,1.73
2022-07-25T23:24:35.890Z,1.40
2022-07-25T23:27:04.230Z,1.83
2022-07-25T23:29:30.583Z,1.17
2022-07-25T23:31:56.902Z,1.60
2022-07-25T23:34:23.268Z,1.70
2022-07-25T23:36:49.720Z,1.10
2022-07-25T23:39:16.237Z,1.40
2022-07-25T23:41:42.565Z,1.63
2022-07-25T23:44:08.989Z,2.00
2022-07-25T23:46:38.108Z,1.40
2022-07-25T23:49:05.248Z,1.67
2022-07-25T23:51:32.355Z,2.47
2022-07-25T23:53:58.964Z,1.10
2022-07-25T23:56:25.299Z,1.45
2022-07-25T23:58:51.993Z,1.73
